WALL/BPN METAR and TAF weather

Enter ICAO airport designator
Station Type Date Time Source
WALL METAR 2022/11/30 16:00 UTC NOAA

WALL 301600Z 34002KT 9000 FEW020 25/23 Q1008 NOSIG


Station Type Date Time Source
WALL Decoded METAR 2022/11/30 16:00 UTC NOAA

Station name not available
Nov 30, 2022 - 11:00 AM EST / 2022.11.30 1600 UTC
Wind: from the NNW (340 degrees) at 2 MPH (2 KT):0
Visibility: 5 mile(s):0
Sky conditions: mostly clear
Temperature: 77 F (25 C)
Dew Point: 73 F (23 C)
Relative Humidity: 88%
Pressure (altimeter): 29.77 in. Hg (1008 hPa)
ob: WALL 301600Z 34002KT 9000 FEW020 25/23 Q1008 NOSIG
cycle: 16

Station Type Date Time Source
WALL TAF 2022/11/30 12:00 UTC NOAA

TAF WALL 301100Z 3012/0118 08004KT 9999 FEW018CB SCT018 PROB30
TEMPO 3016/3019 7000 -TSRA
BECMG 3022/3024 SCT018

Example: see airport list